Time;durP1;ratioP1;P1;durP2;ratioP2;P2;SDS_P1;SDS_P2;PMS_P1;PMS_P2;Temp;Humidity;BMP_temperature;BMP_pressure;BME280_temperature;BME280_humidity;BME280_pressure;Samples;Min_cycle;Max_cycle;Signal;HPM_P1;HPM_P2
2022/03/03 00:02:00;;;;;;;20.58;13.52;;;;;;;0.83;62.21;95068.38;5029139;28;20029;-56
2022/03/03 00:04:26;;;;;;;23.48;13.90;;;;;;;0.92;61.98;95067.34;5029367;28;20026;-56
2022/03/03 00:06:51;;;;;;;18.38;13.13;;;;;;;0.87;62.21;95064.06;5029065;28;20057;-59
2022/03/03 00:09:17;;;;;;;19.63;13.02;;;;;;;0.91;62.15;95068.19;5029634;28;20469;-60
2022/03/03 00:11:42;;;;;;;21.10;13.40;;;;;;;0.53;61.62;95003.97;5028728;28;20140;-58
2022/03/03 00:14:08;;;;;;;14.88;9.63;;;;;;;0.64;62.38;95029.06;5029015;28;20045;-59
2022/03/03 00:16:33;;;;;;;19.48;12.55;;;;;;;0.85;61.96;95046.34;5028965;28;20033;-61
2022/03/03 00:18:59;;;;;;;20.80;12.82;;;;;;;0.98;61.55;95054.47;5027524;28;20041;-56
2022/03/03 00:21:24;;;;;;;17.42;11.25;;;;;;;0.85;62.00;95060.72;5028918;28;20037;-58
2022/03/03 00:23:50;;;;;;;16.13;11.32;;;;;;;0.62;61.61;95018.13;5028462;28;20491;-56
2022/03/03 00:26:16;;;;;;;21.05;12.55;;;;;;;0.95;61.20;95049.47;5028815;28;20029;-57
2022/03/03 00:28:42;;;;;;;19.15;13.82;;;;;;;0.96;61.38;95051.16;5029061;28;20025;-57
2022/03/03 00:31:07;;;;;;;19.65;14.13;;;;;;;0.76;62.20;95027.97;5028756;28;20029;-58
2022/03/03 00:33:33;;;;;;;18.15;13.40;;;;;;;0.89;61.75;95042.84;5028606;28;20038;-58
2022/03/03 00:35:59;;;;;;;23.60;14.10;;;;;;;0.91;61.70;95042.81;5028010;28;20033;-56
2022/03/03 00:38:24;;;;;;;18.60;12.45;;;;;;;0.86;61.96;95044.63;5028555;28;20062;-57
2022/03/03 00:40:49;;;;;;;20.08;12.25;;;;;;;0.15;61.88;94929.63;5028601;28;20036;-57
2022/03/03 00:43:15;;;;;;;20.55;14.57;;;;;;;0.94;61.74;95049.53;5028368;28;20037;-57
2022/03/03 00:45:40;;;;;;;21.45;13.75;;;;;;;0.54;61.60;94982.78;5028589;28;20129;-55
2022/03/03 00:48:06;;;;;;;19.88;13.57;;;;;;;-0.04;61.93;94878.53;5027932;28;20477;-56
2022/03/03 00:50:32;;;;;;;15.77;10.32;;;;;;;0.89;61.90;95035.22;5028515;28;20045;-56
2022/03/03 00:52:58;;;;;;;19.52;13.48;;;;;;;0.90;62.37;95048.75;5028246;28;20024;-60
2022/03/03 00:55:23;;;;;;;20.42;13.35;;;;;;;0.95;62.31;95048.63;5028536;28;20076;-59
2022/03/03 00:57:49;;;;;;;20.35;12.88;;;;;;;0.99;62.00;95047.72;5028217;28;20051;-55
2022/03/03 01:00:15;;;;;;;18.45;12.13;;;;;;;0.96;61.95;95047.78;5027845;28;20155;-66
2022/03/03 01:02:41;;;;;;;17.70;12.65;;;;;;;1.03;62.02;95044.19;5028096;28;20026;-61
2022/03/03 01:05:07;;;;;;;15.35;11.48;;;;;;;0.81;61.96;95021.06;5028344;28;20040;-56
2022/03/03 01:07:33;;;;;;;18.98;13.60;;;;;;;0.90;62.81;95043.66;5028333;28;20017;-54
2022/03/03 01:09:59;;;;;;;23.80;14.52;;;;;;;0.89;62.63;95037.78;5028088;28;20041;-54
2022/03/03 01:12:24;;;;;;;16.70;10.98;;;;;;;0.93;62.33;95043.59;5027852;28;20045;-57
2022/03/03 01:14:50;;;;;;;19.10;11.43;;;;;;;0.87;62.49;95036.97;5027881;28;20046;-56
2022/03/03 01:17:16;;;;;;;19.13;14.65;;;;;;;0.65;62.32;94996.06;5027725;28;20025;-60
2022/03/03 01:19:42;;;;;;;19.73;14.75;;;;;;;0.82;62.15;95003.25;5026888;28;20029;-61
2022/03/03 01:22:08;;;;;;;19.10;13.85;;;;;;;0.99;62.33;95035.84;5027785;28;20480;-56
2022/03/03 01:24:33;;;;;;;19.73;14.40;;;;;;;1.06;62.06;95032.25;5025805;28;20120;-57
2022/03/03 01:26:59;;;;;;;21.73;15.20;;;;;;;0.75;62.30;94986.50;5028155;28;20491;-55
2022/03/03 01:29:25;;;;;;;19.83;13.65;;;;;;;0.76;62.01;94982.28;5027909;28;20113;-56
2022/03/03 01:31:50;;;;;;;17.95;13.20;;;;;;;0.86;61.93;94994.69;5028052;28;20412;-64
2022/03/03 01:34:16;;;;;;;19.17;13.68;;;;;;;0.44;62.42;94920.47;5028118;28;20033;-57
2022/03/03 01:36:43;;;;;;;16.95;12.13;;;;;;;0.61;62.34;94953.88;5027419;28;20065;-57
2022/03/03 01:39:09;;;;;;;20.83;14.02;;;;;;;0.99;62.56;95010.44;5027996;28;20029;-54
2022/03/03 01:41:35;;;;;;;20.42;13.93;;;;;;;0.95;62.85;95015.63;5028134;28;20407;-57
2022/03/03 01:44:01;;;;;;;18.90;14.02;;;;;;;0.57;62.67;94961.59;5027975;28;20351;-58
2022/03/03 01:46:26;;;;;;;18.60;14.30;;;;;;;0.85;62.99;95013.34;5027351;28;20068;-58
2022/03/03 01:48:52;;;;;;;20.25;13.82;;;;;;;0.76;62.76;94995.78;5027880;28;20025;-59
2022/03/03 01:51:17;;;;;;;24.23;13.80;;;;;;;0.90;62.96;95006.44;5028041;28;20030;-60
2022/03/03 01:53:42;;;;;;;22.95;13.60;;;;;;;0.63;62.84;94954.66;5027820;28;20505;-60
2022/03/03 01:56:08;;;;;;;19.17;14.02;;;;;;;0.97;63.03;95008.81;5027115;28;20434;-58
2022/03/03 01:58:37;;;;;;;19.58;13.63;;;;;;;0.84;62.99;94993.91;5027793;28;20048;-61
2022/03/03 02:01:03;;;;;;;23.48;15.23;;;;;;;0.86;63.26;94993.84;5028437;28;20072;-61
2022/03/03 02:03:28;;;;;;;22.27;13.15;;;;;;;0.86;63.24;95015.00;5028150;28;20460;-59
2022/03/03 02:05:54;;;;;;;21.90;14.45;;;;;;;0.91;63.49;95003.00;5027833;28;20030;-55
2022/03/03 02:08:20;;;;;;;23.45;15.85;;;;;;;0.82;63.54;95000.72;5027748;28;20025;-63
2022/03/03 02:10:45;;;;;;;21.92;16.05;;;;;;;0.64;63.20;94955.47;5027227;28;20229;-61
2022/03/03 02:13:11;;;;;;;23.60;15.40;;;;;;;0.79;63.63;94998.25;5027469;28;20060;-56
2022/03/03 02:15:37;;;;;;;23.60;17.35;;;;;;;0.63;63.92;94976.66;5027571;28;20481;-58
2022/03/03 02:18:03;;;;;;;22.42;15.15;;;;;;;0.77;63.92;94989.84;5027610;28;20017;-55
2022/03/03 02:20:30;;;;;;;21.83;15.25;;;;;;;0.86;64.06;95009.09;5027831;28;20025;-57
2022/03/03 02:23:00;;;;;;;17.35;12.82;;;;;;;0.53;63.69;94961.66;5027074;28;20036;-59
2022/03/03 02:25:26;;;;;;;23.38;14.50;;;;;;;0.84;63.67;94996.44;5027355;28;20102;-57
2022/03/03 02:27:52;;;;;;;22.23;15.98;;;;;;;0.64;64.04;94970.72;5027594;28;20116;-58
2022/03/03 02:30:18;;;;;;;20.20;12.77;;;;;;;0.89;63.90;95003.94;5027398;28;20121;-59
2022/03/03 02:32:45;;;;;;;21.30;15.38;;;;;;;0.91;63.94;95005.53;5027619;28;20022;-61
2022/03/03 02:35:11;;;;;;;20.00;14.02;;;;;;;0.92;63.84;94998.78;5029186;28;20022;-63
2022/03/03 02:37:46;;;;;;;18.98;13.02;;;;;;;0.86;63.94;94989.59;5031089;28;20041;-58
2022/03/03 02:40:19;;;;;;;25.30;14.98;;;;;;;0.87;64.75;95001.44;5030915;28;20463;-58
2022/03/03 02:42:53;;;;;;;23.85;15.77;;;;;;;0.77;64.44;94989.00;5031325;28;20036;-59
2022/03/03 02:45:19;;;;;;;22.63;14.38;;;;;;;0.97;64.02;95002.03;5031213;28;20433;-59
2022/03/03 02:47:46;;;;;;;23.20;14.50;;;;;;;0.96;63.90;95000.34;5030558;28;20033;-57
2022/03/03 02:50:14;;;;;;;24.00;16.80;;;;;;;0.95;63.77;94997.84;5030912;28;20026;-58
2022/03/03 02:52:40;;;;;;;22.90;15.82;;;;;;;0.82;64.30;94984.63;5030762;28;20037;-57
2022/03/03 02:55:06;;;;;;;22.00;14.73;;;;;;;0.97;63.94;95001.19;5030727;28;20033;-55
2022/03/03 03:00:16;;;;;;;26.45;15.20;;;;;;;1.02;64.47;95004.47;5030602;28;20056;-55
2022/03/03 03:02:42;;;;;;;23.23;16.42;;;;;;;1.06;64.48;94998.41;5030417;28;20426;-57
2022/03/03 03:05:08;;;;;;;25.23;16.80;;;;;;;0.84;64.30;94960.06;5030436;28;20029;-58
2022/03/03 03:07:33;;;;;;;25.77;16.77;;;;;;;0.95;64.79;94992.78;5030516;28;20093;-59
2022/03/03 03:09:59;;;;;;;23.77;16.60;;;;;;;0.99;64.81;95000.28;5030650;28;20473;-54
2022/03/03 03:12:24;;;;;;;20.17;14.35;;;;;;;0.69;65.81;94986.69;5029983;28;20520;-57
2022/03/03 03:14:50;;;;;;;20.63;13.30;;;;;;;0.81;65.41;95006.66;5028987;28;20052;-54
2022/03/03 03:17:15;;;;;;;21.73;14.02;;;;;;;0.56;66.08;94981.06;5030187;28;20119;-57
2022/03/03 03:19:41;;;;;;;24.08;16.10;;;;;;;0.67;65.71;95012.09;5030435;28;20389;-55
2022/03/03 03:22:06;;;;;;;22.60;15.38;;;;;;;0.45;66.01;94961.03;5030239;28;20025;-57
2022/03/03 03:24:32;;;;;;;27.05;16.65;;;;;;;0.70;65.94;94991.69;5029819;28;20029;-57
2022/03/03 03:26:57;;;;;;;18.98;13.13;;;;;;;0.69;66.38;95005.28;5030359;28;20508;-55
2022/03/03 03:29:22;;;;;;;26.83;15.07;;;;;;;0.70;66.18;95004.38;5030106;28;20398;-57
2022/03/03 03:31:48;;;;;;;23.35;16.17;;;;;;;0.67;66.30;94999.41;5030191;28;20586;-56
2022/03/03 03:34:13;;;;;;;23.25;15.85;;;;;;;0.60;66.29;94995.34;5028719;28;20470;-56
2022/03/03 03:36:39;;;;;;;23.50;15.23;;;;;;;0.68;66.62;94998.50;5029478;28;20044;-57
2022/03/03 03:39:05;;;;;;;21.48;14.43;;;;;;;0.70;66.77;94999.31;5029891;28;20033;-57
2022/03/03 03:41:30;;;;;;;20.05;13.05;;;;;;;0.37;66.44;94952.75;5029924;28;20393;-58
2022/03/03 03:43:56;;;;;;;21.02;13.23;;;;;;;0.66;66.66;94997.72;5029753;28;20528;-56
2022/03/03 03:46:21;;;;;;;21.00;15.25;;;;;;;0.38;66.93;94956.97;5029175;28;20030;-57
2022/03/03 03:48:47;;;;;;;21.25;14.27;;;;;;;0.58;66.95;94978.50;5029526;28;20117;-55
2022/03/03 03:51:13;;;;;;;24.98;16.10;;;;;;;0.64;67.05;94996.94;5029718;28;20025;-58
2022/03/03 03:53:39;;;;;;;20.98;13.40;;;;;;;0.59;66.33;94982.69;5029579;28;20453;-55
2022/03/03 03:56:04;;;;;;;23.17;15.77;;;;;;;0.60;66.33;94979.28;5029612;28;20052;-59
2022/03/03 03:58:30;;;;;;;20.50;13.98;;;;;;;0.58;66.63;94970.88;5029148;28;20601;-57
2022/03/03 04:00:55;;;;;;;23.05;16.23;;;;;;;0.43;66.57;94960.22;5029390;28;20018;-55
2022/03/03 04:03:21;;;;;;;20.17;13.07;;;;;;;0.67;66.82;95013.78;5029410;28;20018;-59
2022/03/03 04:05:46;;;;;;;23.95;16.50;;;;;;;0.63;67.03;94997.81;5029637;28;20437;-56
2022/03/03 04:08:11;;;;;;;23.10;14.90;;;;;;;0.56;66.40;94965.84;5029576;28;20772;-57
2022/03/03 04:10:37;;;;;;;24.65;16.60;;;;;;;0.29;66.89;94922.50;5028821;28;20378;-60
2022/03/03 04:13:02;;;;;;;26.70;16.40;;;;;;;0.67;66.95;94978.25;5029166;28;20025;-58
2022/03/03 04:15:28;;;;;;;23.27;15.25;;;;;;;0.34;67.08;94928.31;5029176;28;20124;-59
2022/03/03 04:17:53;;;;;;;18.83;12.68;;;;;;;0.58;66.76;94976.78;5029233;28;20108;-58
2022/03/03 04:20:19;;;;;;;25.40;16.50;;;;;;;0.47;66.73;94969.41;5029303;28;20063;-55
2022/03/03 04:22:44;;;;;;;24.38;16.52;;;;;;;0.68;67.02;94993.44;5028877;28;20026;-57
2022/03/03 04:25:10;;;;;;;24.80;16.73;;;;;;;0.29;66.50;94926.75;5028769;28;20540;-60
2022/03/03 04:27:37;;;;;;;25.13;17.45;;;;;;;0.43;66.47;94939.13;5029041;28;20499;-58
2022/03/03 04:30:06;;;;;;;22.58;15.23;;;;;;;0.79;65.95;94989.78;5029116;28;20025;-55
2022/03/03 04:32:31;;;;;;;21.45;15.07;;;;;;;0.70;66.28;94976.47;5029098;28;20029;-55
2022/03/03 04:34:57;;;;;;;25.77;15.48;;;;;;;0.68;66.27;94987.53;5028478;28;20496;-57
2022/03/03 04:37:22;;;;;;;24.80;15.27;;;;;;;0.54;66.00;94952.34;5028801;28;20124;-57
2022/03/03 04:39:47;;;;;;;22.30;13.82;;;;;;;0.60;65.90;94971.66;5028899;28;20036;-56
2022/03/03 04:42:13;;;;;;;25.88;15.75;;;;;;;0.56;66.13;94978.53;5028641;28;20033;-58
2022/03/03 04:44:39;;;;;;;18.10;12.88;;;;;;;0.59;66.22;94981.00;5028789;28;20083;-55
2022/03/03 04:47:04;;;;;;;19.63;14.38;;;;;;;0.51;66.30;94973.56;5028435;28;20123;-56
2022/03/03 04:49:30;;;;;;;19.92;12.02;;;;;;;0.57;66.29;94985.25;5028710;28;20033;-60
2022/03/03 04:51:55;;;;;;;25.33;15.65;;;;;;;0.66;66.22;94979.13;5028856;28;20029;-59
2022/03/03 04:54:21;;;;;;;23.10;13.90;;;;;;;0.66;66.02;94982.50;5028830;28;20074;-57
2022/03/03 04:56:46;;;;;;;22.20;14.43;;;;;;;0.67;66.25;94978.25;5027844;28;20041;-57
2022/03/03 04:59:12;;;;;;;24.77;15.00;;;;;;;0.66;66.18;94981.69;5028180;28;20025;-58
2022/03/03 05:01:38;;;;;;;22.73;15.93;;;;;;;0.51;66.53;94960.88;5028610;28;20025;-58
2022/03/03 05:04:03;;;;;;;25.05;16.95;;;;;;;0.71;66.55;94974.78;5028462;28;20026;-56
2022/03/03 05:06:29;;;;;;;25.92;14.48;;;;;;;0.37;65.64;94919.78;5028425;28;20029;-57
2022/03/03 05:08:54;;;;;;;20.80;13.63;;;;;;;0.51;65.56;94938.03;5028432;28;20034;-57
2022/03/03 05:11:20;;;;;;;21.80;13.20;;;;;;;0.58;65.52;94959.03;5026657;28;20025;-60
2022/03/03 05:13:47;;;;;;;24.00;15.77;;;;;;;0.66;65.37;94966.44;5028419;28;20049;-55
2022/03/03 05:16:12;;;;;;;26.58;15.50;;;;;;;0.51;65.88;94948.19;5028187;28;20084;-54
2022/03/03 05:18:39;;;;;;;23.10;14.23;;;;;;;0.31;65.55;94904.72;5028399;28;20152;-57
2022/03/03 05:21:05;;;;;;;23.08;15.25;;;;;;;0.66;65.47;94963.91;5028391;28;20489;-55
2022/03/03 05:23:31;;;;;;;26.80;15.95;;;;;;;0.81;65.57;94978.75;5027810;28;20095;-52
2022/03/03 05:25:56;;;;;;;21.75;14.15;;;;;;;0.60;65.28;94936.13;5028275;28;20396;-57
2022/03/03 05:28:21;;;;;;;20.73;15.60;;;;;;;0.90;65.67;94980.19;5027657;28;20040;-55
2022/03/03 05:30:47;;;;;;;23.85;16.27;;;;;;;0.89;65.83;94961.59;5028196;28;20052;-52
2022/03/03 05:33:14;;;;;;;22.48;14.13;;;;;;;0.99;64.64;94984.22;5028160;28;20037;-57
2022/03/03 05:35:40;;;;;;;22.58;15.00;;;;;;;0.86;64.89;94948.16;5027799;28;20117;-58
2022/03/03 05:38:05;;;;;;;14.57;10.15;;;;;;;0.25;65.14;94872.75;5028243;28;20109;-55
2022/03/03 05:40:31;;;;;;;23.48;14.65;;;;;;;0.97;64.59;94988.47;5028030;28;20108;-57
2022/03/03 05:42:57;;;;;;;22.02;14.23;;;;;;;1.02;64.41;94989.22;5027879;28;20025;-59
2022/03/03 05:45:22;;;;;;;25.77;17.27;;;;;;;1.09;63.51;94976.31;5028055;28;20033;-58
2022/03/03 05:47:48;;;;;;;21.38;14.13;;;;;;;0.85;63.37;94911.78;5028617;28;20025;-56
2022/03/03 05:50:15;;;;;;;19.80;13.85;;;;;;;1.08;63.12;94959.41;5028275;28;20039;-58
2022/03/03 05:52:40;;;;;;;18.75;13.85;;;;;;;1.28;62.65;94984.28;5028100;28;20021;-61
2022/03/03 05:55:06;;;;;;;23.23;11.88;;;;;;;1.24;62.17;94997.91;5028123;28;20087;-55
2022/03/03 05:57:38;;;;;;;25.88;15.73;;;;;;;1.13;62.78;94974.50;5027611;28;20022;-55
2022/03/03 06:00:13;;;;;;;23.70;15.05;;;;;;;1.09;63.10;94980.56;5027699;28;20021;-54
2022/03/03 06:02:49;;;;;;;18.60;11.45;;;;;;;0.93;62.77;94947.13;5027913;28;20021;-55
2022/03/03 06:05:18;;;;;;;19.00;12.73;;;;;;;1.21;63.17;94999.72;5027988;28;20087;-55
2022/03/03 06:07:45;;;;;;;20.23;13.02;;;;;;;0.62;62.67;94909.84;5027936;28;20495;-56
2022/03/03 06:10:13;;;;;;;23.23;14.80;;;;;;;0.99;63.01;94954.56;5031738;28;20013;-58
2022/03/03 06:12:51;;;;;;;23.67;14.15;;;;;;;0.97;62.28;94945.31;5031402;28;20033;-57
2022/03/03 06:15:18;;;;;;;24.10;15.20;;;;;;;1.22;61.81;94970.91;5031602;28;20148;-54
2022/03/03 06:17:44;;;;;;;19.80;11.95;;;;;;;1.41;61.52;94991.53;5031448;28;20695;-58
2022/03/03 06:20:11;;;;;;;21.85;13.00;;;;;;;1.04;61.44;94945.13;5031664;28;20115;-58
2022/03/03 06:22:37;;;;;;;22.27;14.82;;;;;;;1.44;61.16;94989.78;5031113;28;20388;-56
2022/03/03 06:25:05;;;;;;;22.90;14.13;;;;;;;1.28;60.86;94963.94;5031343;28;20035;-58
2022/03/03 06:27:32;;;;;;;23.42;13.85;;;;;;;1.57;60.60;94977.53;5031379;28;20029;-60
2022/03/03 06:29:57;;;;;;;20.75;12.82;;;;;;;1.27;60.65;94929.25;5030039;28;20516;-58
2022/03/03 06:32:23;;;;;;;21.30;13.95;;;;;;;1.49;59.55;94943.06;5041563;28;20060;-57
2022/03/03 06:34:49;;;;;;;15.98;11.32;;;;;;;1.64;59.50;94978.19;5039865;28;20025;-60
2022/03/03 06:37:15;;;;;;;23.95;14.95;;;;;;;1.65;59.40;94970.50;5040560;28;20037;-58
2022/03/03 06:39:40;;;;;;;23.25;14.20;;;;;;;1.78;58.69;94978.63;5041525;28;20091;-59
2022/03/03 06:42:07;;;;;;;22.50;12.43;;;;;;;1.67;58.83;94973.00;5037230;28;20526;-57
2022/03/03 06:44:33;;;;;;;24.02;12.52;;;;;;;1.64;58.83;94984.13;5032689;28;20037;-57
2022/03/03 06:46:58;;;;;;;21.58;12.88;;;;;;;1.60;58.57;94981.69;5046795;28;20039;-62
2022/03/03 06:49:24;;;;;;;24.92;16.52;;;;;;;1.84;58.33;94980.16;5043691;28;20041;-59
2022/03/03 06:51:50;;;;;;;18.55;13.50;;;;;;;2.10;56.98;94981.94;5040525;28;20037;-58
2022/03/03 06:54:21;;;;;;;20.85;14.68;;;;;;;2.29;56.39;94981.34;5040387;28;20170;-64
2022/03/03 06:56:51;;;;;;;18.08;10.93;;;;;;;2.25;55.98;94998.44;5039526;28;20078;-60
2022/03/03 06:59:21;;;;;;;20.20;12.48;;;;;;;1.89;56.40;94957.97;5039489;28;20464;-55
2022/03/03 07:01:48;;;;;;;22.13;14.55;;;;;;;2.25;56.50;94995.88;5039783;28;20397;-55
2022/03/03 07:04:15;;;;;;;20.10;11.88;;;;;;;2.20;55.45;94988.41;5040017;28;20053;-67
2022/03/03 07:06:41;;;;;;;20.48;10.73;;;;;;;2.28;55.40;94974.59;5039613;28;20013;-57
2022/03/03 07:09:08;;;;;;;19.83;13.65;;;;;;;2.29;55.26;94997.44;5039798;28;20025;-57
2022/03/03 07:11:34;;;;;;;22.83;13.90;;;;;;;2.42;54.37;94980.09;5039982;28;20075;-64
2022/03/03 07:14:00;;;;;;;22.02;13.63;;;;;;;2.62;53.57;94965.88;5038776;28;20049;-59
2022/03/03 07:16:47;;;;;;;21.63;13.23;;;;;;;2.92;53.14;94997.16;5040351;28;20052;-58
2022/03/03 07:19:34;;;;;;;20.25;12.82;;;;;;;2.87;52.88;94986.28;5040336;28;20030;-57
2022/03/03 07:22:09;;;;;;;19.40;11.57;;;;;;;2.67;53.07;94992.88;5040834;28;20017;-56
2022/03/03 07:24:44;;;;;;;21.70;13.45;;;;;;;2.96;52.66;94962.22;5039838;28;20053;-56
2022/03/03 07:27:23;;;;;;;18.08;12.88;;;;;;;2.53;52.80;94984.84;5039749;28;20402;-61
2022/03/03 07:30:01;;;;;;;18.08;12.68;;;;;;;2.32;53.40;94966.81;5050244;28;20029;-57
2022/03/03 07:32:36;;;;;;;26.70;16.00;;;;;;;2.75;53.01;94987.50;5050325;28;20707;-58
2022/03/03 07:35:14;;;;;;;20.60;14.95;;;;;;;2.68;52.75;94958.88;5046410;28;20017;-58
2022/03/03 07:37:49;;;;;;;21.25;13.85;;;;;;;3.01;52.20;94983.28;5038815;28;20025;-55
2022/03/03 07:40:16;;;;;;;21.58;12.52;;;;;;;2.95;52.15;94984.28;5038540;28;20076;-60
2022/03/03 07:42:42;;;;;;;25.13;13.68;;;;;;;3.18;50.67;94952.09;5039767;28;20021;-58
2022/03/03 07:45:09;;;;;;;22.38;12.88;;;;;;;3.25;49.94;94939.09;5039872;28;20021;-56
2022/03/03 07:47:35;;;;;;;15.27;9.57;;;;;;;3.13;50.39;94965.84;5032425;28;20477;-59
2022/03/03 07:50:01;;;;;;;21.88;11.60;;;;;;;3.05;50.22;94929.63;5032637;28;20052;-59
2022/03/03 07:52:28;;;;;;;20.05;13.73;;;;;;;3.29;50.47;94978.06;5040249;28;20025;-56
2022/03/03 07:54:54;;;;;;;24.83;13.10;;;;;;;3.38;50.40;94984.53;5038393;28;20059;-58
2022/03/03 07:57:21;;;;;;;21.30;13.73;;;;;;;3.59;49.70;94980.38;5039717;28;19952;-58
2022/03/03 07:59:57;;;;;;;22.55;12.60;;;;;;;3.46;50.00;94985.94;5039278;28;20493;-56
2022/03/03 08:02:24;;;;;;;24.80;14.00;;;;;;;3.31;50.43;94984.78;5035504;28;20454;-60
2022/03/03 08:04:51;;;;;;;18.88;12.48;;;;;;;3.75;53.69;94984.03;5025624;28;20099;-59
2022/03/03 08:07:18;;;;;;;20.52;11.88;;;;;;;4.12;50.90;94959.69;5026043;28;20061;-56
2022/03/03 08:09:47;;;;;;;21.80;13.57;;;;;;;3.61;49.69;94956.50;5028373;28;21074;-60
2022/03/03 08:12:14;;;;;;;22.17;14.45;;;;;;;3.60;49.63;94980.34;5025918;28;20543;-59
2022/03/03 08:14:40;;;;;;;23.60;12.70;;;;;;;3.40;50.28;94991.25;5025578;28;20046;-58
2022/03/03 08:17:07;;;;;;;24.95;14.40;;;;;;;3.45;50.40;94978.34;5025828;28;20025;-60
2022/03/03 08:19:33;;;;;;;20.92;13.73;;;;;;;3.42;50.47;94997.13;5028442;28;20124;-58
2022/03/03 08:21:58;;;;;;;20.90;11.88;;;;;;;3.51;50.61;94980.69;5026287;28;20116;-58
2022/03/03 08:24:26;;;;;;;20.30;14.27;;;;;;;3.64;49.94;94981.03;5030869;28;20512;-62
2022/03/03 08:26:54;;;;;;;22.27;13.00;;;;;;;3.50;49.88;94979.84;5040791;28;20079;-61
2022/03/03 08:29:20;;;;;;;18.17;13.13;;;;;;;4.25;51.68;94988.13;5038952;28;20048;-60
2022/03/03 08:31:49;;;;;;;16.58;10.85;;;;;;;4.62;47.41;94983.31;5025171;28;20045;-58
2022/03/03 08:34:28;;;;;;;18.77;11.95;;;;;;;4.23;48.30;94979.69;5028131;28;20037;-59
2022/03/03 08:37:00;;;;;;;19.52;13.10;;;;;;;4.54;47.17;94981.03;5027089;28;20923;-60
2022/03/03 08:39:28;;;;;;;21.40;13.27;;;;;;;4.34;47.10;94941.00;5026843;28;20029;-58
2022/03/03 08:41:59;;;;;;;19.88;13.00;;;;;;;4.08;48.34;94976.00;5033024;28;20033;-59
2022/03/03 08:44:31;;;;;;;24.02;14.85;;;;;;;4.48;47.55;94981.31;5039184;28;20109;-62
2022/03/03 08:46:57;;;;;;;20.70;12.90;;;;;;;4.79;46.43;94996.22;5045113;28;20081;-58
2022/03/03 08:49:33;;;;;;;21.10;12.50;;;;;;;4.75;46.23;94977.63;5037401;28;20557;-58
2022/03/03 08:52:05;;;;;;;18.95;11.75;;;;;;;4.44;46.98;94983.13;5028569;28;20025;-68
2022/03/03 08:54:30;;;;;;;22.10;13.73;;;;;;;4.05;47.41;94930.22;5027035;28;20021;-60
2022/03/03 08:56:56;;;;;;;19.58;14.48;;;;;;;4.67;47.54;94968.63;5040330;28;20037;-58
2022/03/03 08:59:22;;;;;;;18.80;12.48;;;;;;;5.08;45.65;94963.50;5045560;28;20072;-68
2022/03/03 09:01:49;;;;;;;22.80;14.00;;;;;;;4.51;46.10;94940.31;5040038;28;20102;-61
2022/03/03 09:04:14;;;;;;;16.67;11.50;;;;;;;3.92;46.37;94875.44;5031731;28;20038;-59
2022/03/03 09:06:40;;;;;;;18.02;12.40;;;;;;;4.42;46.78;94964.50;5030475;28;20036;-61
2022/03/03 09:09:05;;;;;;;19.70;12.07;;;;;;;4.62;46.25;94947.53;5029554;28;20028;-67
2022/03/03 09:11:31;;;;;;;18.17;12.15;;;;;;;4.56;46.81;94981.84;5037427;28;20063;-60
2022/03/03 09:13:56;;;;;;;13.02;9.40;;;;;;;4.27;47.17;94960.00;5042600;28;20041;-59
2022/03/03 09:16:22;;;;;;;17.48;13.30;;;;;;;4.53;47.52;94971.75;5041402;28;20037;-58
2022/03/03 09:18:48;;;;;;;17.30;11.93;;;;;;;4.42;47.25;94969.59;5025980;28;20026;-57
2022/03/03 09:21:14;;;;;;;21.77;13.82;;;;;;;4.53;47.17;94971.75;5027586;28;20091;-60
2022/03/03 09:23:41;;;;;;;18.52;12.73;;;;;;;4.54;47.22;94966.56;5034270;28;20036;-70
2022/03/03 09:26:07;;;;;;;19.73;12.90;;;;;;;3.98;48.09;94962.78;5041479;28;20506;-66
2022/03/03 09:28:36;;;;;;;14.38;9.73;;;;;;;4.04;48.14;94967.66;5034612;28;20104;-67
2022/03/03 09:31:01;;;;;;;20.95;14.05;;;;;;;4.02;48.16;94971.97;5027454;28;20095;-63
2022/03/03 09:33:27;;;;;;;19.52;12.50;;;;;;;3.89;47.64;94911.25;5026978;28;20029;-59
2022/03/03 09:35:55;;;;;;;22.92;14.00;;;;;;;4.60;47.25;94968.03;5035644;28;20835;-59
2022/03/03 09:38:21;;;;;;;19.85;10.50;;;;;;;4.34;47.12;94969.06;5031355;28;20025;-60
2022/03/03 09:40:50;;;;;;;20.17;13.02;;;;;;;4.50;46.82;94972.69;5037621;28;20017;-62
2022/03/03 09:43:16;;;;;;;24.00;13.55;;;;;;;4.90;46.29;94950.63;5036943;28;20029;-61
2022/03/03 09:45:42;;;;;;;21.30;13.25;;;;;;;5.75;44.33;94969.97;5031696;28;20445;-58
2022/03/03 09:48:09;;;;;;;22.20;14.57;;;;;;;6.78;41.24;94884.91;5031293;28;20056;-61
2022/03/03 09:50:37;;;;;;;16.08;11.30;;;;;;;9.18;35.53;94949.00;5030335;28;20687;-58
2022/03/03 09:53:12;;;;;;;18.00;12.32;;;;;;;8.36;37.42;94945.06;5028311;28;20432;-62
2022/03/03 09:55:38;;;;;;;19.42;13.70;;;;;;;7.58;38.71;94937.25;5028514;28;20018;-61
2022/03/03 09:58:06;;;;;;;18.13;11.63;;;;;;;8.78;35.76;94950.47;5029197;28;20030;-62
2022/03/03 10:00:37;;;;;;;21.70;12.68;;;;;;;6.39;40.21;94955.97;5030230;28;20408;-60
2022/03/03 10:03:08;;;;;;;14.63;9.98;;;;;;;5.29;42.35;94908.91;5028714;28;20526;-59
2022/03/03 10:05:36;;;;;;;16.30;10.48;;;;;;;5.45;42.96;94962.75;5033871;28;20028;-59
2022/03/03 10:08:05;;;;;;;20.88;11.98;;;;;;;5.23;43.68;94941.56;5041525;28;20060;-60
2022/03/03 10:10:32;;;;;;;19.05;11.60;;;;;;;5.14;43.90;94937.69;5043346;28;20036;-60
2022/03/03 10:12:57;;;;;;;15.43;9.70;;;;;;;4.95;44.28;94953.81;5037109;28;20600;-58
2022/03/03 10:15:27;;;;;;;27.30;14.93;;;;;;;5.40;43.89;94940.84;5029898;28;20064;-62
2022/03/03 10:18:02;;;;;;;17.48;12.23;;;;;;;5.25;43.60;94945.75;5026211;28;20810;-60
2022/03/03 10:20:34;;;;;;;21.67;12.68;;;;;;;5.08;43.50;94920.06;5028622;28;20021;-59
2022/03/03 10:23:00;;;;;;;20.55;14.43;;;;;;;5.32;43.44;94957.34;5028250;28;20150;-59
2022/03/03 10:25:44;;;;;;;19.67;13.07;;;;;;;5.42;43.26;94951.84;5027993;28;20033;-62
2022/03/03 10:28:18;;;;;;;20.58;11.90;;;;;;;5.23;44.04;94954.34;5027787;28;20056;-64
2022/03/03 10:30:47;;;;;;;18.35;12.82;;;;;;;5.32;43.82;94952.22;5027570;28;20048;-60
2022/03/03 10:33:19;;;;;;;18.75;11.70;;;;;;;5.08;44.51;94940.50;5028575;28;20037;-59
2022/03/03 10:36:09;;;;;;;18.58;13.10;;;;;;;5.30;43.98;94936.13;5027371;28;20035;-58
2022/03/03 10:38:47;;;;;;;13.43;8.75;;;;;;;5.00;44.26;94942.56;5027357;28;20040;-58
2022/03/03 10:41:44;;;;;;;16.40;10.85;;;;;;;4.64;44.99;94938.09;5027721;28;20037;-59
2022/03/03 10:44:17;;;;;;;17.45;10.45;;;;;;;4.69;44.87;94919.13;5031782;28;20037;-58
2022/03/03 10:47:09;;;;;;;18.90;12.63;;;;;;;5.04;43.81;94928.78;5027669;28;20041;-58
2022/03/03 10:49:38;;;;;;;17.02;11.02;;;;;;;5.11;44.68;94922.50;5036277;28;20504;-60
2022/03/03 10:52:18;;;;;;;17.95;12.52;;;;;;;4.65;45.39;94886.94;5028756;28;20029;-61
2022/03/03 10:55:05;;;;;;;18.80;12.73;;;;;;;4.63;45.46;94898.94;5032001;28;20033;-58
2022/03/03 10:57:33;;;;;;;21.77;14.30;;;;;;;4.94;45.80;94931.72;5027500;28;20117;-57
2022/03/03 11:00:01;;;;;;;22.17;12.73;;;;;;;5.27;44.56;94926.03;5029724;28;20033;-61
2022/03/03 11:02:28;;;;;;;17.65;12.32;;;;;;;5.35;44.15;94923.16;5027940;28;20132;-61
2022/03/03 11:04:55;;;;;;;18.75;11.85;;;;;;;5.02;44.87;94933.94;5026834;28;20160;-58
2022/03/03 11:07:22;;;;;;;20.67;12.40;;;;;;;4.48;45.23;94882.53;5027414;28;20029;-61
2022/03/03 11:09:48;;;;;;;19.80;13.75;;;;;;;5.01;44.70;94916.13;5034666;28;20018;-56
2022/03/03 11:12:15;;;;;;;18.15;13.52;;;;;;;5.20;43.97;94934.03;5027395;28;20041;-60
2022/03/03 11:14:42;;;;;;;19.95;11.55;;;;;;;5.09;44.32;94916.63;5028200;28;20046;-58
2022/03/03 11:17:09;;;;;;;20.58;13.25;;;;;;;5.05;44.32;94882.69;5027164;28;20504;-61
2022/03/03 11:19:35;;;;;;;17.98;10.90;;;;;;;5.23;43.79;94903.22;5031672;28;20086;-60
2022/03/03 11:22:01;;;;;;;17.23;12.10;;;;;;;5.27;43.89;94909.88;5027445;28;20014;-59
2022/03/03 11:24:28;;;;;;;20.48;12.98;;;;;;;4.95;44.12;94896.75;5026828;28;20028;-60
2022/03/03 11:26:54;;;;;;;20.05;11.45;;;;;;;4.67;45.21;94928.56;5030198;28;20535;-58
2022/03/03 11:29:20;;;;;;;15.40;10.27;;;;;;;4.61;45.51;94916.06;5034443;28;20127;-63